Fountain City, Tennessee
Current Conditions -  °F | °C
As of 4:53 PM on Monday 24 Nov 2014 (Local Time) from KOQT Reporting Station
Clear Clear  
Wind Chill: 65°   Ceiling: Unl
Heat Index: 65°   Visibility: 10mi
Dew Point: 42°   Wind: 9mph
Humidity: 43%   Direction: 260°W
Pressure: 29.8"   Gusts: NA
Location:  36.1232°N, 83.9406°W
Report Text: KOQT 242153Z AUTO 26008KT 10SM CLR 18/06 A2980 RMK AO2 SLP085 T01830056
Loading
Personal Weather Stations






























Interactive Weather Map New forecast layout! Learn more

10-Day Weather Forecast

Advertisements
Track Severe Weather on mobile